sensor_id;sensor_type;location;lat;lon;timestamp;temperature;humidity
1025;DHT22;501;48.214;11.350;2023-09-08T06:35:17;15.10;69.10
1025;DHT22;501;48.214;11.350;2023-09-08T07:05:11;16.00;63.10
1025;DHT22;501;48.214;11.350;2023-09-08T07:43:50;17.00;61.70
1025;DHT22;501;48.214;11.350;2023-09-08T07:46:16;17.10;62.00
1025;DHT22;501;48.214;11.350;2023-09-08T08:01:37;17.50;60.80
1025;DHT22;501;48.214;11.350;2023-09-08T08:04:02;17.60;60.40
1025;DHT22;501;48.214;11.350;2023-09-08T10:07:15;21.30;48.00
1025;DHT22;501;48.214;11.350;2023-09-08T10:09:41;21.40;48.10
1025;DHT22;501;48.214;11.350;2023-09-08T10:12:09;21.40;46.90
1025;DHT22;501;48.214;11.350;2023-09-08T10:14:41;21.50;46.50
1025;DHT22;501;48.214;11.350;2023-09-08T10:17:10;21.60;46.50
1025;DHT22;501;48.214;11.350;2023-09-08T10:19:35;21.70;47.30
1025;DHT22;501;48.214;11.350;2023-09-08T10:22:11;21.70;46.30
1025;DHT22;501;48.214;11.350;2023-09-08T10:24:38;21.80;45.60
1025;DHT22;501;48.214;11.350;2023-09-08T10:29:31;22.00;45.00
1025;DHT22;501;48.214;11.350;2023-09-08T10:31:58;22.00;45.70
1025;DHT22;501;48.214;11.350;2023-09-08T10:34:28;22.10;46.90
1025;DHT22;501;48.214;11.350;2023-09-08T10:36:55;22.20;45.30
1025;DHT22;501;48.214;11.350;2023-09-08T10:39:35;22.30;44.20
1025;DHT22;501;48.214;11.350;2023-09-08T10:47:30;22.40;42.30
1025;DHT22;501;48.214;11.350;2023-09-08T10:49:56;22.50;42.00
1025;DHT22;501;48.214;11.350;2023-09-08T10:52:24;22.60;41.90
1025;DHT22;501;48.214;11.350;2023-09-08T10:54:52;22.70;41.80
1025;DHT22;501;48.214;11.350;2023-09-08T10:57:22;22.70;41.70
1025;DHT22;501;48.214;11.350;2023-09-08T11:00:03;22.80;42.10
1025;DHT22;501;48.214;11.350;2023-09-08T11:02:40;22.90;41.60
1025;DHT22;501;48.214;11.350;2023-09-08T11:05:14;23.00;41.80
1025;DHT22;501;48.214;11.350;2023-09-08T11:07:44;23.10;41.30
1025;DHT22;501;48.214;11.350;2023-09-08T11:10:11;23.10;39.90
1025;DHT22;501;48.214;11.350;2023-09-08T11:12:37;23.20;39.80
1025;DHT22;501;48.214;11.350;2023-09-08T11:15:05;23.20;38.90
1025;DHT22;501;48.214;11.350;2023-09-08T11:17:32;23.30;39.00
1025;DHT22;501;48.214;11.350;2023-09-08T11:19:58;23.40;39.80
1025;DHT22;501;48.214;11.350;2023-09-08T11:22:25;23.40;40.30
1025;DHT22;501;48.214;11.350;2023-09-08T11:24:56;23.50;38.70
1025;DHT22;501;48.214;11.350;2023-09-08T11:27:27;23.60;38.80
1025;DHT22;501;48.214;11.350;2023-09-08T11:29:54;23.60;39.10
1025;DHT22;501;48.214;11.350;2023-09-08T11:32:20;23.70;40.50
1025;DHT22;501;48.214;11.350;2023-09-08T11:34:45;23.80;39.90
1025;DHT22;501;48.214;11.350;2023-09-08T11:37:12;23.80;39.10
1025;DHT22;501;48.214;11.350;2023-09-08T11:39:45;23.90;38.70
1025;DHT22;501;48.214;11.350;2023-09-08T11:42:15;24.00;38.80
1025;DHT22;501;48.214;11.350;2023-09-08T11:44:44;24.00;38.20
1025;DHT22;501;48.214;11.350;2023-09-08T11:47:10;24.10;37.80
1025;DHT22;501;48.214;11.350;2023-09-08T11:49:36;24.10;37.20
1025;DHT22;501;48.214;11.350;2023-09-08T11:52:03;24.20;36.70
1025;DHT22;501;48.214;11.350;2023-09-08T11:54:31;24.30;35.60
1025;DHT22;501;48.214;11.350;2023-09-08T11:56:59;24.40;35.60
1025;DHT22;501;48.214;11.350;2023-09-08T11:59:27;24.60;35.60
1025;DHT22;501;48.214;11.350;2023-09-08T12:01:54;24.70;35.10
1025;DHT22;501;48.214;11.350;2023-09-08T12:04:20;24.90;36.10
1025;DHT22;501;48.214;11.350;2023-09-08T12:06:48;25.20;35.50
1025;DHT22;501;48.214;11.350;2023-09-08T12:09:14;25.60;35.70
1025;DHT22;501;48.214;11.350;2023-09-08T12:11:39;25.90;36.20
1025;DHT22;501;48.214;11.350;2023-09-08T12:14:12;26.40;33.80
1025;DHT22;501;48.214;11.350;2023-09-08T12:16:39;26.90;33.10
1025;DHT22;501;48.214;11.350;2023-09-08T12:19:05;27.50;33.10
1025;DHT22;501;48.214;11.350;2023-09-08T12:21:32;28.00;31.70
1025;DHT22;501;48.214;11.350;2023-09-08T12:23:58;28.50;30.90
1025;DHT22;501;48.214;11.350;2023-09-08T12:26:26;29.00;29.80
1025;DHT22;501;48.214;11.350;2023-09-08T12:28:52;29.40;29.70
1025;DHT22;501;48.214;11.350;2023-09-08T12:31:18;29.70;29.10
1025;DHT22;501;48.214;11.350;2023-09-08T12:33:44;30.10;30.20
1025;DHT22;501;48.214;11.350;2023-09-08T12:36:15;30.50;28.00
1025;DHT22;501;48.214;11.350;2023-09-08T12:38:50;30.80;27.10
1025;DHT22;501;48.214;11.350;2023-09-08T12:41:16;31.00;27.30
1025;DHT22;501;48.214;11.350;2023-09-08T12:43:41;31.20;27.40
1025;DHT22;501;48.214;11.350;2023-09-08T12:46:07;31.50;27.40
1025;DHT22;501;48.214;11.350;2023-09-08T12:48:33;31.70;26.50
1025;DHT22;501;48.214;11.350;2023-09-08T12:50:58;31.90;26.60
1025;DHT22;501;48.214;11.350;2023-09-08T12:53:24;32.10;25.60
1025;DHT22;501;48.214;11.350;2023-09-08T12:55:50;32.20;25.20
1025;DHT22;501;48.214;11.350;2023-09-08T12:58:16;32.30;24.60
1025;DHT22;501;48.214;11.350;2023-09-08T13:00:45;32.40;25.30
1025;DHT22;501;48.214;11.350;2023-09-08T13:03:11;32.50;25.70
1025;DHT22;501;48.214;11.350;2023-09-08T13:05:39;32.60;25.50
1025;DHT22;501;48.214;11.350;2023-09-08T13:08:05;32.80;25.00
1025;DHT22;501;48.214;11.350;2023-09-08T13:10:30;33.10;24.50
1025;DHT22;501;48.214;11.350;2023-09-08T13:12:56;33.30;24.90
1025;DHT22;501;48.214;11.350;2023-09-08T13:15:23;33.60;23.60
1025;DHT22;501;48.214;11.350;2023-09-08T13:17:48;33.80;23.70
1025;DHT22;501;48.214;11.350;2023-09-08T13:20:14;34.00;23.80
1025;DHT22;501;48.214;11.350;2023-09-08T13:22:40;34.20;23.20
1025;DHT22;501;48.214;11.350;2023-09-08T13:25:06;34.30;24.00
1025;DHT22;501;48.214;11.350;2023-09-08T13:27:31;34.40;22.70
1025;DHT22;501;48.214;11.350;2023-09-08T13:30:13;34.50;22.70
1025;DHT22;501;48.214;11.350;2023-09-08T13:32:40;34.60;23.00
1025;DHT22;501;48.214;11.350;2023-09-08T13:35:06;34.60;22.30
1025;DHT22;501;48.214;11.350;2023-09-08T13:37:32;34.70;23.60
1025;DHT22;501;48.214;11.350;2023-09-08T13:40:00;34.80;21.30
1025;DHT22;501;48.214;11.350;2023-09-08T13:42:26;34.90;21.80
1025;DHT22;501;48.214;11.350;2023-09-08T13:44:51;35.00;22.10
1025;DHT22;501;48.214;11.350;2023-09-08T13:47:17;35.20;21.90
1025;DHT22;501;48.214;11.350;2023-09-08T13:49:45;35.30;21.50
1025;DHT22;501;48.214;11.350;2023-09-08T13:52:10;35.40;21.60
1025;DHT22;501;48.214;11.350;2023-09-08T13:54:36;35.50;21.40
1025;DHT22;501;48.214;11.350;2023-09-08T13:57:02;35.60;21.40
1025;DHT22;501;48.214;11.350;2023-09-08T13:59:29;35.70;21.40
1025;DHT22;501;48.214;11.350;2023-09-08T14:01:55;35.80;21.10
1025;DHT22;501;48.214;11.350;2023-09-08T14:04:23;35.90;20.70
1025;DHT22;501;48.214;11.350;2023-09-08T14:06:49;36.00;19.90
1025;DHT22;501;48.214;11.350;2023-09-08T14:09:14;36.10;19.90
1025;DHT22;501;48.214;11.350;2023-09-08T14:11:58;36.10;20.20
1025;DHT22;501;48.214;11.350;2023-09-08T14:14:24;36.10;19.50
1025;DHT22;501;48.214;11.350;2023-09-08T14:16:50;36.10;19.20
1025;DHT22;501;48.214;11.350;2023-09-08T14:19:15;36.10;19.70
1025;DHT22;501;48.214;11.350;2023-09-08T14:21:41;36.20;20.70
1025;DHT22;501;48.214;11.350;2023-09-08T14:24:07;36.20;19.20
1025;DHT22;501;48.214;11.350;2023-09-08T14:26:32;36.30;19.00
1025;DHT22;501;48.214;11.350;2023-09-08T14:28:58;36.50;19.50
1025;DHT22;501;48.214;11.350;2023-09-08T14:31:24;36.70;18.90
1025;DHT22;501;48.214;11.350;2023-09-08T14:33:49;36.70;19.60
1025;DHT22;501;48.214;11.350;2023-09-08T14:36:18;36.80;18.40
1025;DHT22;501;48.214;11.350;2023-09-08T14:38:44;36.80;18.70
1025;DHT22;501;48.214;11.350;2023-09-08T14:41:10;36.80;18.60
1025;DHT22;501;48.214;11.350;2023-09-08T14:43:36;36.90;18.70
1025;DHT22;501;48.214;11.350;2023-09-08T14:46:01;36.90;18.80
1025;DHT22;501;48.214;11.350;2023-09-08T14:48:29;37.00;19.10
1025;DHT22;501;48.214;11.350;2023-09-08T14:50:56;37.00;18.10
1025;DHT22;501;48.214;11.350;2023-09-08T14:53:22;36.90;17.90
1025;DHT22;501;48.214;11.350;2023-09-08T14:55:48;36.90;17.70
1025;DHT22;501;48.214;11.350;2023-09-08T14:58:17;36.90;18.40
1025;DHT22;501;48.214;11.350;2023-09-08T15:00:44;36.90;18.10
1025;DHT22;501;48.214;11.350;2023-09-08T15:03:09;36.80;17.40
1025;DHT22;501;48.214;11.350;2023-09-08T15:05:35;36.50;17.90
1025;DHT22;501;48.214;11.350;2023-09-08T15:08:01;36.30;18.70
1025;DHT22;501;48.214;11.350;2023-09-08T15:10:27;36.20;18.50
1025;DHT22;501;48.214;11.350;2023-09-08T15:12:54;36.30;18.30
1025;DHT22;501;48.214;11.350;2023-09-08T15:15:20;36.40;17.90
1025;DHT22;501;48.214;11.350;2023-09-08T15:17:55;36.50;17.80
1025;DHT22;501;48.214;11.350;2023-09-08T15:20:21;36.50;18.20
1025;DHT22;501;48.214;11.350;2023-09-08T15:22:48;36.50;17.90
1025;DHT22;501;48.214;11.350;2023-09-08T15:25:17;36.40;17.60
1025;DHT22;501;48.214;11.350;2023-09-08T15:27:43;36.40;17.70
1025;DHT22;501;48.214;11.350;2023-09-08T15:30:09;36.20;18.20
1025;DHT22;501;48.214;11.350;2023-09-08T15:32:36;35.90;18.70
1025;DHT22;501;48.214;11.350;2023-09-08T15:35:05;35.60;18.70
1025;DHT22;501;48.214;11.350;2023-09-08T15:37:30;35.40;18.90
1025;DHT22;501;48.214;11.350;2023-09-08T15:39:56;35.10;19.00
1025;DHT22;501;48.214;11.350;2023-09-08T15:42:22;34.70;19.30
1025;DHT22;501;48.214;11.350;2023-09-08T15:44:47;34.30;20.00
1025;DHT22;501;48.214;11.350;2023-09-08T15:47:13;33.80;20.50
1025;DHT22;501;48.214;11.350;2023-09-08T15:49:38;33.30;21.00
1025;DHT22;501;48.214;11.350;2023-09-08T15:52:05;32.90;21.80
1025;DHT22;501;48.214;11.350;2023-09-08T15:54:31;32.50;21.70
1025;DHT22;501;48.214;11.350;2023-09-08T15:56:56;32.10;22.40
1025;DHT22;501;48.214;11.350;2023-09-08T15:59:22;31.80;22.90
1025;DHT22;501;48.214;11.350;2023-09-08T16:01:48;31.50;23.50
1025;DHT22;501;48.214;11.350;2023-09-08T16:04:13;31.20;23.20
1025;DHT22;501;48.214;11.350;2023-09-08T16:06:40;31.00;23.70
1025;DHT22;501;48.214;11.350;2023-09-08T16:09:05;30.80;24.20
1025;DHT22;501;48.214;11.350;2023-09-08T16:11:34;30.60;24.60
1025;DHT22;501;48.214;11.350;2023-09-08T16:14:00;30.40;24.70
1025;DHT22;501;48.214;11.350;2023-09-08T16:16:25;30.30;25.20
1025;DHT22;501;48.214;11.350;2023-09-08T16:18:51;30.10;25.60
1025;DHT22;501;48.214;11.350;2023-09-08T16:21:18;30.00;26.30
1025;DHT22;501;48.214;11.350;2023-09-08T16:23:43;29.90;26.00
1025;DHT22;501;48.214;11.350;2023-09-08T16:26:09;29.80;26.20
1025;DHT22;501;48.214;11.350;2023-09-08T16:28:35;29.60;26.60
1025;DHT22;501;48.214;11.350;2023-09-08T16:31:07;29.50;26.80
1025;DHT22;501;48.214;11.350;2023-09-08T16:33:36;29.40;27.00
1025;DHT22;501;48.214;11.350;2023-09-08T16:36:02;29.30;27.20
1025;DHT22;501;48.214;11.350;2023-09-08T16:38:27;29.20;27.30
1025;DHT22;501;48.214;11.350;2023-09-08T16:40:53;29.10;27.60
1025;DHT22;501;48.214;11.350;2023-09-08T16:43:19;28.90;27.90
1025;DHT22;501;48.214;11.350;2023-09-08T16:45:45;28.90;28.30
1025;DHT22;501;48.214;11.350;2023-09-08T16:48:10;28.70;28.70
1025;DHT22;501;48.214;11.350;2023-09-08T16:50:36;28.50;28.60
1025;DHT22;501;48.214;11.350;2023-09-08T16:53:02;28.40;28.50
1025;DHT22;501;48.214;11.350;2023-09-08T16:55:28;28.30;29.00
1025;DHT22;501;48.214;11.350;2023-09-08T16:57:54;28.20;29.30
1025;DHT22;501;48.214;11.350;2023-09-08T17:00:19;28.00;29.80
1025;DHT22;501;48.214;11.350;2023-09-08T17:02:45;27.80;29.90
1025;DHT22;501;48.214;11.350;2023-09-08T17:05:10;27.70;30.00
1025;DHT22;501;48.214;11.350;2023-09-08T17:07:40;27.60;30.50
1025;DHT22;501;48.214;11.350;2023-09-08T17:10:06;27.50;30.40
1025;DHT22;501;48.214;11.350;2023-09-08T17:12:32;27.30;30.40
1025;DHT22;501;48.214;11.350;2023-09-08T17:14:58;27.20;30.80
1025;DHT22;501;48.214;11.350;2023-09-08T17:17:24;27.10;31.30
1025;DHT22;501;48.214;11.350;2023-09-08T17:19:49;27.00;31.70
1025;DHT22;501;48.214;11.350;2023-09-08T17:22:15;26.90;31.80
1025;DHT22;501;48.214;11.350;2023-09-08T17:24:40;26.80;31.70
1025;DHT22;501;48.214;11.350;2023-09-08T17:27:06;26.70;32.10
1025;DHT22;501;48.214;11.350;2023-09-08T17:29:32;26.60;32.30
1025;DHT22;501;48.214;11.350;2023-09-08T17:31:57;26.50;32.60
1025;DHT22;501;48.214;11.350;2023-09-08T17:34:24;26.40;32.80
1025;DHT22;501;48.214;11.350;2023-09-08T17:36:55;26.40;32.90
1025;DHT22;501;48.214;11.350;2023-09-08T17:39:22;26.30;33.10
1025;DHT22;501;48.214;11.350;2023-09-08T17:41:48;26.20;33.40
1025;DHT22;501;48.214;11.350;2023-09-08T17:44:14;26.10;33.60
1025;DHT22;501;48.214;11.350;2023-09-08T17:46:39;26.00;34.10
1025;DHT22;501;48.214;11.350;2023-09-08T17:49:05;25.90;35.00
1025;DHT22;501;48.214;11.350;2023-09-08T17:51:31;25.80;35.60
1025;DHT22;501;48.214;11.350;2023-09-08T17:53:56;25.70;35.80
1025;DHT22;501;48.214;11.350;2023-09-08T17:56:22;25.60;35.70
1025;DHT22;501;48.214;11.350;2023-09-08T17:58:48;25.40;35.60
1025;DHT22;501;48.214;11.350;2023-09-08T18:01:13;25.30;36.20
1025;DHT22;501;48.214;11.350;2023-09-08T18:03:39;25.20;36.60
1025;DHT22;501;48.214;11.350;2023-09-08T18:06:05;25.10;37.40
1025;DHT22;501;48.214;11.350;2023-09-08T18:08:33;24.90;37.90
1025;DHT22;501;48.214;11.350;2023-09-08T18:10:59;24.80;38.30
1025;DHT22;501;48.214;11.350;2023-09-08T18:13:25;24.70;38.60
1025;DHT22;501;48.214;11.350;2023-09-08T18:15:59;24.50;38.80
1025;DHT22;501;48.214;11.350;2023-09-08T18:18:25;24.40;39.50
1025;DHT22;501;48.214;11.350;2023-09-08T18:20:52;24.30;39.80
1025;DHT22;501;48.214;11.350;2023-09-08T18:23:18;24.20;40.40
1025;DHT22;501;48.214;11.350;2023-09-08T18:25:44;24.00;40.50
1025;DHT22;501;48.214;11.350;2023-09-08T18:28:10;23.90;41.10
1025;DHT22;501;48.214;11.350;2023-09-08T18:30:36;23.80;41.40
1025;DHT22;501;48.214;11.350;2023-09-08T18:33:02;23.70;41.80
1025;DHT22;501;48.214;11.350;2023-09-08T18:35:28;23.60;42.40
1025;DHT22;501;48.214;11.350;2023-09-08T18:37:57;23.50;43.00
1025;DHT22;501;48.214;11.350;2023-09-08T18:40:23;23.40;43.30
1025;DHT22;501;48.214;11.350;2023-09-08T18:42:49;23.30;43.20
1025;DHT22;501;48.214;11.350;2023-09-08T18:45:15;23.20;43.70
1025;DHT22;501;48.214;11.350;2023-09-08T18:47:42;23.10;44.00
1025;DHT22;501;48.214;11.350;2023-09-08T18:50:21;23.00;44.20
1025;DHT22;501;48.214;11.350;2023-09-08T18:56:04;22.90;45.10
1025;DHT22;501;48.214;11.350;2023-09-08T18:58:30;22.80;45.40
1025;DHT22;501;48.214;11.350;2023-09-08T19:00:56;22.70;45.80
1025;DHT22;501;48.214;11.350;2023-09-08T19:03:40;22.60;45.90
1025;DHT22;501;48.214;11.350;2023-09-08T19:06:29;22.50;46.80
1025;DHT22;501;48.214;11.350;2023-09-08T19:08:57;22.40;47.40
1025;DHT22;501;48.214;11.350;2023-09-08T19:11:23;22.30;47.50
1025;DHT22;501;48.214;11.350;2023-09-08T19:16:51;22.20;47.80
1025;DHT22;501;48.214;11.350;2023-09-08T19:19:23;22.10;48.60
1025;DHT22;501;48.214;11.350;2023-09-08T19:21:55;22.00;49.10
1025;DHT22;501;48.214;11.350;2023-09-08T19:24:32;22.00;49.00
1025;DHT22;501;48.214;11.350;2023-09-08T19:27:22;21.90;49.30
1025;DHT22;501;48.214;11.350;2023-09-08T19:29:48;21.80;49.50
1025;DHT22;501;48.214;11.350;2023-09-08T19:32:23;21.80;49.50
1025;DHT22;501;48.214;11.350;2023-09-08T19:35:11;21.70;49.70
1025;DHT22;501;48.214;11.350;2023-09-08T19:37:40;21.70;50.10
1025;DHT22;501;48.214;11.350;2023-09-08T19:40:24;21.60;50.30
1025;DHT22;501;48.214;11.350;2023-09-08T19:42:53;21.60;51.10
1025;DHT22;501;48.214;11.350;2023-09-08T19:45:19;21.50;51.70
1025;DHT22;501;48.214;11.350;2023-09-08T19:47:47;21.40;52.00
1025;DHT22;501;48.214;11.350;2023-09-08T19:50:17;21.40;52.40
1025;DHT22;501;48.214;11.350;2023-09-08T19:52:55;21.30;52.10
1025;DHT22;501;48.214;11.350;2023-09-08T19:56:00;21.20;52.50
1025;DHT22;501;48.214;11.350;2023-09-08T19:58:29;21.20;53.00
1025;DHT22;501;48.214;11.350;2023-09-08T20:01:08;21.10;53.60
1025;DHT22;501;48.214;11.350;2023-09-08T20:03:51;21.10;54.20
1025;DHT22;501;48.214;11.350;2023-09-08T20:09:22;21.00;54.60
1025;DHT22;501;48.214;11.350;2023-09-08T20:11:48;20.90;54.40
1025;DHT22;501;48.214;11.350;2023-09-08T20:14:25;20.90;54.40
1025;DHT22;501;48.214;11.350;2023-09-08T20:16:59;20.80;54.40
1025;DHT22;501;48.214;11.350;2023-09-08T20:19:27;20.80;54.70
1025;DHT22;501;48.214;11.350;2023-09-08T20:21:53;20.80;54.70
1025;DHT22;501;48.214;11.350;2023-09-08T20:24:22;20.70;54.90
1025;DHT22;501;48.214;11.350;2023-09-08T20:26:48;20.70;55.00
1025;DHT22;501;48.214;11.350;2023-09-08T20:29:14;20.60;54.40
1025;DHT22;501;48.214;11.350;2023-09-08T20:31:49;20.60;54.60
1025;DHT22;501;48.214;11.350;2023-09-08T20:34:21;20.50;54.80
1025;DHT22;501;48.214;11.350;2023-09-08T20:36:47;20.50;55.30
1025;DHT22;501;48.214;11.350;2023-09-08T20:39:18;20.50;55.80
1025;DHT22;501;48.214;11.350;2023-09-08T20:41:47;20.40;56.40
1025;DHT22;501;48.214;11.350;2023-09-08T20:44:17;20.40;56.90
1025;DHT22;501;48.214;11.350;2023-09-08T20:46:52;20.30;57.00
1025;DHT22;501;48.214;11.350;2023-09-08T20:49:17;20.30;57.40
1025;DHT22;501;48.214;11.350;2023-09-08T20:51:49;20.30;58.20
1025;DHT22;501;48.214;11.350;2023-09-08T20:54:15;20.20;58.20
1025;DHT22;501;48.214;11.350;2023-09-08T20:56:46;20.20;58.20
1025;DHT22;501;48.214;11.350;2023-09-08T20:59:16;20.20;57.20
1025;DHT22;501;48.214;11.350;2023-09-08T21:01:54;20.10;57.10
1025;DHT22;501;48.214;11.350;2023-09-08T21:04:23;20.10;57.40
1025;DHT22;501;48.214;11.350;2023-09-08T21:06:49;20.00;57.40
1025;DHT22;501;48.214;11.350;2023-09-08T21:09:22;20.00;58.10
1025;DHT22;501;48.214;11.350;2023-09-08T21:12:07;19.90;59.30
1025;DHT22;501;48.214;11.350;2023-09-08T21:14:52;19.90;59.70
1025;DHT22;501;48.214;11.350;2023-09-08T21:17:17;19.90;59.00
1025;DHT22;501;48.214;11.350;2023-09-08T21:19:43;19.80;57.90
1025;DHT22;501;48.214;11.350;2023-09-08T21:22:30;19.80;58.60
1025;DHT22;501;48.214;11.350;2023-09-08T21:25:01;19.80;59.70
1025;DHT22;501;48.214;11.350;2023-09-08T21:28:05;19.70;59.30
1025;DHT22;501;48.214;11.350;2023-09-08T21:30:48;19.70;59.10
1025;DHT22;501;48.214;11.350;2023-09-08T21:33:41;19.60;59.10
1025;DHT22;501;48.214;11.350;2023-09-08T21:36:32;19.60;59.80
1025;DHT22;501;48.214;11.350;2023-09-08T21:39:31;19.60;59.90
1025;DHT22;501;48.214;11.350;2023-09-08T21:42:17;19.50;60.60
1025;DHT22;501;48.214;11.350;2023-09-08T21:44:49;19.50;60.30
1025;DHT22;501;48.214;11.350;2023-09-08T21:47:25;19.40;60.60
1025;DHT22;501;48.214;11.350;2023-09-08T21:50:16;19.40;60.70
1025;DHT22;501;48.214;11.350;2023-09-08T21:52:42;19.40;60.40
1025;DHT22;501;48.214;11.350;2023-09-08T21:55:44;19.30;60.20
1025;DHT22;501;48.214;11.350;2023-09-08T21:58:27;19.30;60.70
1025;DHT22;501;48.214;11.350;2023-09-08T22:01:48;19.20;61.10
1025;DHT22;501;48.214;11.350;2023-09-08T22:04:53;19.20;61.20
1025;DHT22;501;48.214;11.350;2023-09-08T22:07:28;19.20;60.80
1025;DHT22;501;48.214;11.350;2023-09-08T22:10:08;19.10;60.50
1025;DHT22;501;48.214;11.350;2023-09-08T22:12:55;19.10;60.60
1025;DHT22;501;48.214;11.350;2023-09-08T22:15:31;19.10;61.00
1025;DHT22;501;48.214;11.350;2023-09-08T22:18:20;19.00;61.40
1025;DHT22;501;48.214;11.350;2023-09-08T22:21:06;19.00;62.00
1025;DHT22;501;48.214;11.350;2023-09-08T22:24:07;19.00;61.70
1025;DHT22;501;48.214;11.350;2023-09-08T22:26:59;18.90;61.40
1025;DHT22;501;48.214;11.350;2023-09-08T22:29:28;18.90;61.20
1025;DHT22;501;48.214;11.350;2023-09-08T22:31:53;18.90;60.70
1025;DHT22;501;48.214;11.350;2023-09-08T22:34:30;18.90;61.40
1025;DHT22;501;48.214;11.350;2023-09-08T22:36:55;18.80;62.00
1025;DHT22;501;48.214;11.350;2023-09-08T22:42:24;18.70;61.80
1025;DHT22;501;48.214;11.350;2023-09-08T22:44:50;18.70;61.80
1025;DHT22;501;48.214;11.350;2023-09-08T22:47:15;18.70;63.40
1025;DHT22;501;48.214;11.350;2023-09-08T22:53:17;18.60;63.80
1025;DHT22;501;48.214;11.350;2023-09-08T22:55:43;18.60;63.50
1025;DHT22;501;48.214;11.350;2023-09-08T22:58:10;18.60;62.70
1025;DHT22;501;48.214;11.350;2023-09-08T23:00:45;18.60;62.80
1025;DHT22;501;48.214;11.350;2023-09-08T23:03:17;18.50;62.60
1025;DHT22;501;48.214;11.350;2023-09-08T23:05:49;18.50;61.70
1025;DHT22;501;48.214;11.350;2023-09-08T23:08:41;18.50;61.80
1025;DHT22;501;48.214;11.350;2023-09-08T23:11:07;18.40;61.80
1025;DHT22;501;48.214;11.350;2023-09-08T23:13:43;18.40;62.00
1025;DHT22;501;48.214;11.350;2023-09-08T23:16:19;18.40;61.70
1025;DHT22;501;48.214;11.350;2023-09-08T23:45:21;18.10;63.10
1025;DHT22;501;48.214;11.350;2023-09-08T23:47:58;18.00;62.80
1025;DHT22;501;48.214;11.350;2023-09-08T23:53:16;18.00;62.50
1025;DHT22;501;48.214;11.350;2023-09-08T23:55:47;18.00;62.30
1025;DHT22;501;48.214;11.350;2023-09-08T23:58:25;17.90;62.80
